Time;durP1;ratioP1;P1;durP2;ratioP2;P2;SDS_P1;SDS_P2;PMS_P1;PMS_P2;Temp;Humidity;BMP_temperature;BMP_pressure;BME280_temperature;BME280_humidity;BME280_pressure;Samples;Min_cycle;Max_cycle;Signal;HPM_P1;HPM_P2
2022/12/05 00:01:19;;;;;;;1.70;1.60;;;3.50;98.20;;;;;;4962715;28;20466;-76
2022/12/05 00:03:49;;;;;;;1.70;1.50;;;3.50;98.20;;;;;;4969496;28;20466;-76
2022/12/05 00:06:17;;;;;;;1.63;1.40;;;3.60;98.20;;;;;;4968481;28;20485;-75
2022/12/05 00:08:44;;;;;;;2.10;1.90;;;3.50;98.20;;;;;;4969070;28;21017;-76
2022/12/05 00:11:12;;;;;;;1.60;1.40;;;3.50;98.20;;;;;;4968498;28;20732;-76
2022/12/05 00:13:40;;;;;;;1.63;1.40;;;3.60;98.20;;;;;;4965374;28;20552;-76
2022/12/05 00:16:08;;;;;;;1.60;1.40;;;3.50;98.20;;;;;;4960278;28;20510;-76
2022/12/05 00:18:34;;;;;;;1.63;1.40;;;3.50;98.20;;;;;;4965280;28;20517;-76
2022/12/05 00:21:03;;;;;;;1.60;1.40;;;3.50;98.20;;;;;;4969266;28;20466;-75
2022/12/05 00:23:30;;;;;;;1.60;1.40;;;3.50;98.20;;;;;;4968811;28;20458;-75
2022/12/05 00:25:56;;;;;;;1.60;1.40;;;3.50;98.20;;;;;;4970215;28;20527;-75
2022/12/05 00:28:23;;;;;;;1.60;1.40;;;3.50;98.20;;;;;;4964316;28;20838;-76
2022/12/05 00:30:50;;;;;;;1.60;1.40;;;3.50;98.20;;;;;;4964386;28;20461;-75
2022/12/05 00:33:16;;;;;;;1.67;1.40;;;3.50;98.20;;;;;;4967769;28;20474;-75
2022/12/05 00:35:43;;;;;;;1.60;1.40;;;3.50;98.20;;;;;;4968769;28;20489;-75
2022/12/05 00:38:11;;;;;;;1.70;1.43;;;3.50;98.20;;;;;;4968812;28;20940;-76
2022/12/05 00:40:38;;;;;;;1.63;1.40;;;3.50;98.20;;;;;;4968352;28;20469;-76
2022/12/05 00:43:05;;;;;;;1.60;1.47;;;3.40;98.20;;;;;;4967923;28;20466;-76
2022/12/05 00:45:33;;;;;;;1.70;1.50;;;3.40;98.20;;;;;;4965886;28;20489;-75
2022/12/05 00:47:59;;;;;;;1.70;1.40;;;3.40;98.20;;;;;;4972528;28;20465;-75
2022/12/05 00:50:26;;;;;;;1.63;1.40;;;3.40;98.20;;;;;;4972865;28;20490;-75
2022/12/05 00:52:53;;;;;;;1.70;1.53;;;3.40;98.20;;;;;;4971819;28;20472;-75
2022/12/05 00:55:21;;;;;;;1.60;1.40;;;3.40;98.20;;;;;;4972084;28;20489;-75
2022/12/05 00:57:48;;;;;;;1.63;1.40;;;3.40;98.20;;;;;;4970226;28;20473;-75
2022/12/05 01:00:15;;;;;;;5.10;4.80;;;3.40;98.20;;;;;;4961148;28;20968;-75
2022/12/05 01:02:42;;;;;;;1.83;1.73;;;3.40;98.20;;;;;;4971430;28;20461;-76
2022/12/05 01:05:09;;;;;;;1.70;1.50;;;3.40;98.20;;;;;;4968831;28;20858;-76
2022/12/05 01:07:36;;;;;;;1.63;1.40;;;3.40;98.20;;;;;;4971948;28;20481;-76
2022/12/05 01:10:03;;;;;;;1.70;1.40;;;3.40;98.20;;;;;;4972492;28;20489;-75
2022/12/05 01:12:32;;;;;;;2.97;2.77;;;3.50;98.20;;;;;;4972410;28;20462;-75
2022/12/05 01:14:58;;;;;;;2.53;2.23;;;3.50;98.20;;;;;;4969000;28;21012;-76
2022/12/05 01:17:25;;;;;;;1.60;1.40;;;3.50;98.20;;;;;;4967041;28;20467;-75
2022/12/05 01:19:52;;;;;;;1.67;1.40;;;3.50;98.20;;;;;;4967616;28;20481;-75
2022/12/05 01:22:19;;;;;;;1.70;1.40;;;3.50;98.20;;;;;;4972928;28;20473;-75
2022/12/05 01:24:45;;;;;;;1.63;1.40;;;3.50;98.20;;;;;;4970479;28;20824;-75
2022/12/05 01:27:12;;;;;;;1.70;1.40;;;3.50;98.20;;;;;;4972301;28;20473;-76
2022/12/05 01:29:40;;;;;;;1.70;1.60;;;3.50;98.20;;;;;;4962154;28;20496;-75
2022/12/05 01:32:07;;;;;;;1.63;1.40;;;3.50;98.20;;;;;;4971055;28;20496;-75
2022/12/05 01:34:34;;;;;;;1.67;1.40;;;3.50;98.20;;;;;;4971860;28;20465;-76
2022/12/05 01:37:01;;;;;;;1.60;1.40;;;3.50;98.20;;;;;;4972857;28;20468;-75
2022/12/05 01:39:28;;;;;;;1.63;1.40;;;3.50;98.20;;;;;;4972411;28;20465;-75
2022/12/05 01:41:54;;;;;;;1.70;1.50;;;3.50;98.20;;;;;;4970204;28;20474;-76
2022/12/05 01:45:01;;;;;;;1.70;1.50;;;3.50;98.20;;;;;;4971778;28;20473;-75
2022/12/05 01:47:30;;;;;;;1.70;1.43;;;3.50;98.20;;;;;;4971208;28;20669;-75
2022/12/05 01:49:58;;;;;;;2.10;1.90;;;3.50;98.20;;;;;;4971833;28;20482;-75
2022/12/05 01:52:27;;;;;;;2.37;2.17;;;3.50;98.20;;;;;;4970522;28;20462;-75
2022/12/05 01:54:58;;;;;;;1.63;1.40;;;3.50;98.20;;;;;;4971055;28;20489;-75
2022/12/05 01:57:25;;;;;;;1.70;1.50;;;3.50;98.20;;;;;;4971094;28;20466;-73
2022/12/05 01:59:58;;;;;;;1.60;1.30;;;3.50;98.20;;;;;;4965805;28;20963;-75
2022/12/05 02:02:27;;;;;;;1.63;1.40;;;3.50;98.20;;;;;;4970350;28;20469;-75
2022/12/05 02:05:01;;;;;;;1.60;1.40;;;3.50;98.20;;;;;;4970642;28;21043;-75
2022/12/05 02:07:28;;;;;;;1.70;1.40;;;3.50;98.20;;;;;;4971199;28;20465;-75
2022/12/05 02:09:54;;;;;;;1.60;1.37;;;3.60;98.20;;;;;;4971565;28;20865;-75
2022/12/05 02:12:22;;;;;;;1.70;1.40;;;3.60;98.20;;;;;;4971184;28;20472;-76
2022/12/05 02:15:02;;;;;;;1.60;1.30;;;3.60;98.20;;;;;;4970943;28;20482;-75
2022/12/05 02:17:40;;;;;;;1.60;1.30;;;3.60;98.20;;;;;;4971437;28;20466;-75
2022/12/05 02:20:14;;;;;;;1.60;1.30;;;3.50;98.20;;;;;;4971475;28;20453;-75
2022/12/05 02:23:19;;;;;;;1.70;1.40;;;3.50;98.20;;;;;;4968081;28;20461;-75
2022/12/05 02:26:17;;;;;;;1.60;1.30;;;3.50;98.20;;;;;;4949587;28;20474;-75
2022/12/05 02:29:10;;;;;;;3.20;3.00;;;3.60;98.20;;;;;;4969290;28;20466;-75
2022/12/05 02:31:44;;;;;;;1.70;1.53;;;3.60;98.20;;;;;;4965381;28;20939;-75
2022/12/05 02:34:16;;;;;;;1.67;1.40;;;3.60;98.20;;;;;;4971305;28;20832;-75
2022/12/05 02:36:47;;;;;;;1.60;1.40;;;3.60;98.20;;;;;;4968929;28;20485;-76
2022/12/05 02:39:17;;;;;;;1.60;1.40;;;3.60;98.20;;;;;;4971381;28;20497;-76
2022/12/05 02:41:50;;;;;;;1.60;1.40;;;3.60;98.20;;;;;;4969909;28;20983;-77
2022/12/05 02:44:23;;;;;;;1.70;1.50;;;3.60;98.20;;;;;;4971676;28;20462;-78
2022/12/05 02:46:54;;;;;;;1.67;1.43;;;3.50;98.20;;;;;;4970896;28;20914;-77
2022/12/05 02:49:25;;;;;;;1.70;1.40;;;3.50;98.20;;;;;;4971142;28;20493;-78
2022/12/05 02:51:56;;;;;;;1.60;1.30;;;3.50;98.20;;;;;;4970407;28;20466;-79
2022/12/05 02:54:26;;;;;;;1.70;1.50;;;3.50;98.20;;;;;;4971528;28;20466;-78
2022/12/05 02:56:57;;;;;;;1.70;1.50;;;3.50;98.20;;;;;;4962715;28;20551;-78
2022/12/05 02:59:23;;;;;;;1.70;1.40;;;3.50;98.20;;;;;;4967934;28;20988;-78
2022/12/05 03:01:52;;;;;;;1.70;1.50;;;3.50;98.20;;;;;;4969151;28;20469;-77
2022/12/05 03:04:21;;;;;;;1.70;1.40;;;3.50;98.20;;;;;;4971672;28;20465;-78
2022/12/05 03:06:52;;;;;;;1.60;1.40;;;3.50;98.20;;;;;;4969433;28;20490;-78
2022/12/05 03:09:23;;;;;;;2.43;2.23;;;3.50;98.20;;;;;;4970116;28;21018;-77
2022/12/05 03:11:56;;;;;;;1.60;1.40;;;3.60;98.20;;;;;;4970424;28;20469;-78
2022/12/05 03:14:27;;;;;;;1.60;1.40;;;3.60;98.20;;;;;;4969406;28;20474;-78
2022/12/05 03:17:00;;;;;;;1.67;1.40;;;3.60;98.20;;;;;;4970064;28;20474;-78
2022/12/05 03:19:34;;;;;;;1.63;1.40;;;3.60;98.20;;;;;;4971284;28;20462;-78
2022/12/05 03:22:06;;;;;;;1.67;1.40;;;3.60;98.20;;;;;;4969900;28;20458;-78
2022/12/05 03:24:35;;;;;;;1.60;1.40;;;3.60;98.20;;;;;;4977274;28;20818;-77
2022/12/05 03:27:07;;;;;;;1.80;1.70;;;3.60;98.20;;;;;;4972666;28;20509;-81
2022/12/05 03:29:39;;;;;;;1.67;1.50;;;3.60;98.20;;;;;;4972832;28;21098;-82
2022/12/05 03:32:11;;;;;;;1.63;1.40;;;3.60;98.20;;;;;;4973547;28;20466;-81
2022/12/05 03:34:48;;;;;;;1.63;1.40;;;3.60;98.20;;;;;;4973465;28;20465;-80
2022/12/05 03:37:21;;;;;;;1.60;1.30;;;3.60;98.20;;;;;;4968980;28;20894;-79
2022/12/05 03:39:54;;;;;;;1.70;1.50;;;3.60;98.20;;;;;;4971490;28;20881;-80
2022/12/05 03:42:28;;;;;;;1.70;1.50;;;3.60;98.20;;;;;;4971374;28;20493;-80
2022/12/05 03:45:00;;;;;;;1.70;1.50;;;3.50;98.20;;;;;;4978222;28;20492;-81
2022/12/05 03:47:38;;;;;;;2.37;2.17;;;3.50;98.20;;;;;;5000072;22;20571;-77
2022/12/05 03:50:11;;;;;;;1.67;1.40;;;3.50;98.20;;;;;;4989689;28;20480;-78
2022/12/05 03:52:43;;;;;;;1.60;1.40;;;3.50;98.20;;;;;;4992703;28;20469;-78
2022/12/05 03:55:12;;;;;;;1.63;1.40;;;3.40;98.20;;;;;;4991506;28;20472;-77
2022/12/05 03:57:44;;;;;;;1.67;1.40;;;3.40;98.20;;;;;;4989977;28;20493;-77
2022/12/05 04:00:15;;;;;;;1.70;1.60;;;3.30;98.20;;;;;;4985608;28;20456;-77
2022/12/05 04:02:48;;;;;;;1.63;1.40;;;3.30;98.20;;;;;;4991178;28;20461;-77
2022/12/05 04:05:19;;;;;;;1.67;1.30;;;3.30;98.20;;;;;;4993538;28;20881;-77
2022/12/05 04:07:49;;;;;;;1.63;1.40;;;3.40;98.20;;;;;;4989054;28;20555;-78
2022/12/05 04:10:20;;;;;;;1.60;1.40;;;3.40;98.20;;;;;;4991165;28;20481;-77
2022/12/05 04:12:49;;;;;;;1.60;1.40;;;3.40;98.20;;;;;;4989153;28;20464;-77
2022/12/05 04:15:21;;;;;;;1.70;1.50;;;3.40;98.20;;;;;;4989305;28;20949;-77
2022/12/05 04:17:55;;;;;;;3.57;3.30;;;3.30;98.20;;;;;;4988558;28;20997;-77
2022/12/05 04:23:11;;;;;;;1.60;1.40;;;3.30;98.20;;;;;;4989708;28;20452;-77
2022/12/05 04:25:47;;;;;;;1.60;1.40;;;3.30;98.20;;;;;;4988782;28;20504;-77
2022/12/05 04:28:27;;;;;;;1.60;1.40;;;3.30;98.20;;;;;;4984910;28;20464;-77
2022/12/05 04:31:03;;;;;;;1.63;1.40;;;3.30;98.20;;;;;;4988060;28;20938;-77
2022/12/05 04:33:38;;;;;;;1.63;1.40;;;3.30;98.20;;;;;;4989324;28;20476;-77
2022/12/05 04:36:12;;;;;;;1.67;1.50;;;3.30;98.20;;;;;;4989774;28;20668;-78
2022/12/05 04:38:47;;;;;;;1.67;1.40;;;3.40;98.20;;;;;;4990889;28;20468;-78
2022/12/05 04:41:19;;;;;;;1.70;1.50;;;3.40;98.20;;;;;;4989748;28;20496;-77
2022/12/05 04:43:49;;;;;;;1.70;1.47;;;3.40;98.20;;;;;;4988807;28;20480;-77
2022/12/05 04:46:18;;;;;;;1.67;1.40;;;3.20;98.20;;;;;;4989876;28;20492;-78
2022/12/05 04:48:51;;;;;;;1.70;1.60;;;3.20;98.20;;;;;;4989031;28;20457;-78
2022/12/05 04:51:22;;;;;;;1.67;1.43;;;3.10;98.20;;;;;;4989600;28;20488;-78
2022/12/05 04:53:54;;;;;;;1.63;1.40;;;3.10;98.20;;;;;;4987561;28;20941;-77
2022/12/05 04:56:24;;;;;;;1.70;1.60;;;3.10;98.20;;;;;;4987496;28;21019;-76
2022/12/05 04:58:50;;;;;;;1.67;1.40;;;3.20;98.20;;;;;;4988475;28;20543;-78
2022/12/05 05:01:22;;;;;;;1.63;1.40;;;3.20;98.20;;;;;;4989231;28;20461;-76
2022/12/05 05:03:54;;;;;;;1.70;1.50;;;3.20;98.20;;;;;;4988345;28;20461;-77
2022/12/05 05:06:21;;;;;;;1.67;1.40;;;3.20;98.20;;;;;;4987428;28;20495;-77
2022/12/05 05:08:50;;;;;;;1.70;1.40;;;3.20;98.20;;;;;;4988163;28;20461;-76
2022/12/05 05:11:19;;;;;;;1.70;1.40;;;3.20;98.20;;;;;;4986962;28;20861;-76
2022/12/05 05:13:46;;;;;;;1.70;1.43;;;3.10;98.20;;;;;;4987685;28;20465;-77
2022/12/05 05:16:18;;;;;;;1.67;1.50;;;3.20;98.20;;;;;;4987369;28;20516;-76
2022/12/05 05:18:45;;;;;;;1.63;1.40;;;3.10;98.20;;;;;;4987963;28;21147;-77
2022/12/05 05:21:19;;;;;;;1.70;1.50;;;3.10;98.20;;;;;;4987825;28;20465;-76
2022/12/05 05:23:46;;;;;;;1.67;1.40;;;3.10;98.20;;;;;;4987811;28;20852;-76
2022/12/05 05:26:12;;;;;;;1.70;1.50;;;3.10;98.20;;;;;;4988777;28;20481;-76
2022/12/05 05:28:39;;;;;;;1.70;1.40;;;3.10;98.20;;;;;;4981577;28;20461;-76
2022/12/05 05:31:07;;;;;;;1.67;1.40;;;3.00;98.20;;;;;;4973398;28;20867;-76
2022/12/05 05:33:34;;;;;;;1.70;1.60;;;3.00;98.20;;;;;;4991913;28;20461;-76
2022/12/05 05:36:06;;;;;;;1.67;1.43;;;3.00;98.20;;;;;;4990083;28;20503;-76
2022/12/05 05:38:37;;;;;;;1.70;1.40;;;3.00;98.20;;;;;;4991596;28;20847;-76
2022/12/05 05:41:04;;;;;;;1.67;1.50;;;3.00;98.20;;;;;;4990284;28;20982;-76
2022/12/05 05:43:31;;;;;;;1.70;1.50;;;3.00;98.20;;;;;;4989789;28;20469;-76
2022/12/05 05:45:58;;;;;;;1.63;1.40;;;3.00;98.20;;;;;;4989657;28;20989;-75
2022/12/05 05:48:25;;;;;;;1.63;1.37;;;3.00;98.20;;;;;;4997301;28;20606;-75
2022/12/05 05:50:52;;;;;;;1.63;1.40;;;3.00;98.20;;;;;;4990639;28;20503;-77
2022/12/05 05:53:19;;;;;;;1.70;1.57;;;3.00;98.20;;;;;;4984072;28;20472;-77
2022/12/05 05:55:47;;;;;;;1.70;1.60;;;3.00;98.20;;;;;;4981328;28;20492;-76
2022/12/05 05:58:14;;;;;;;1.60;1.30;;;3.00;98.20;;;;;;4989931;28;20465;-76
2022/12/05 06:00:41;;;;;;;2.20;1.90;;;3.00;98.20;;;;;;4992487;28;20464;-75
2022/12/05 06:03:08;;;;;;;1.70;1.50;;;2.90;98.20;;;;;;4987880;28;20548;-75
2022/12/05 06:05:34;;;;;;;1.67;1.43;;;3.00;98.20;;;;;;4988840;28;20500;-76
2022/12/05 06:08:01;;;;;;;1.70;1.47;;;3.00;98.20;;;;;;4985453;28;20857;-76
2022/12/05 06:10:29;;;;;;;1.67;1.40;;;2.90;98.20;;;;;;4983575;28;20500;-75
2022/12/05 06:12:59;;;;;;;1.70;1.40;;;3.00;98.20;;;;;;4981024;28;20461;-76
2022/12/05 06:15:26;;;;;;;1.70;1.50;;;3.00;98.20;;;;;;4989075;28;20925;-77
2022/12/05 06:17:53;;;;;;;1.67;1.40;;;3.00;98.20;;;;;;4981802;28;20469;-76
2022/12/05 06:20:20;;;;;;;1.60;1.40;;;3.00;98.20;;;;;;4982904;28;21017;-76
2022/12/05 06:22:48;;;;;;;1.60;1.40;;;3.00;98.20;;;;;;4983947;28;20496;-74
2022/12/05 06:25:15;;;;;;;1.67;1.50;;;3.00;98.20;;;;;;4985200;28;21141;-75
2022/12/05 06:27:44;;;;;;;1.70;1.50;;;3.00;98.20;;;;;;4984707;28;20481;-75
2022/12/05 06:30:13;;;;;;;1.67;1.50;;;3.00;98.20;;;;;;4983076;28;20904;-76
2022/12/05 06:32:40;;;;;;;1.70;1.50;;;3.00;98.20;;;;;;4984880;28;20461;-76
2022/12/05 06:35:14;;;;;;;1.70;1.50;;;3.00;98.20;;;;;;4985847;28;20568;-76
2022/12/05 06:37:41;;;;;;;1.70;1.60;;;2.90;98.20;;;;;;4982682;28;20576;-75
2022/12/05 06:40:09;;;;;;;1.70;1.40;;;2.90;98.20;;;;;;4984649;28;20500;-76
2022/12/05 06:42:36;;;;;;;2.07;1.87;;;2.90;98.20;;;;;;4983854;28;20465;-76
2022/12/05 06:45:03;;;;;;;1.63;1.37;;;3.00;98.20;;;;;;4986195;28;20479;-75
2022/12/05 06:47:32;;;;;;;1.70;1.53;;;3.00;98.20;;;;;;4982498;28;20576;-75
2022/12/05 06:49:59;;;;;;;2.13;1.90;;;3.00;98.20;;;;;;4981622;28;20878;-75
2022/12/05 06:52:26;;;;;;;1.63;1.40;;;3.00;98.20;;;;;;4982935;28;20560;-76
2022/12/05 06:54:53;;;;;;;1.70;1.60;;;3.00;98.20;;;;;;4983194;28;20897;-75
2022/12/05 06:57:20;;;;;;;1.70;1.50;;;3.00;98.20;;;;;;4980451;28;20548;-76
2022/12/05 06:59:47;;;;;;;1.63;1.50;;;3.00;98.20;;;;;;4980472;28;20519;-75
2022/12/05 07:02:13;;;;;;;1.60;1.40;;;3.00;98.20;;;;;;4980587;28;20492;-76
2022/12/05 07:04:42;;;;;;;1.67;1.40;;;3.00;98.20;;;;;;4984760;28;20983;-75
2022/12/05 07:07:09;;;;;;;1.63;1.40;;;3.00;98.20;;;;;;4983846;28;20289;-76
2022/12/05 07:09:52;;;;;;;1.60;1.40;;;3.00;98.20;;;;;;4984191;28;20493;-77
2022/12/05 07:12:19;;;;;;;1.60;1.40;;;3.00;98.20;;;;;;4980741;28;20848;-77
2022/12/05 07:14:49;;;;;;;3.20;3.00;;;3.00;98.20;;;;;;4985113;28;20473;-77
2022/12/05 07:17:17;;;;;;;1.70;1.50;;;3.00;98.20;;;;;;4981278;28;20492;-77
2022/12/05 07:19:48;;;;;;;1.70;1.50;;;3.00;98.20;;;;;;4983615;28;20488;-77
2022/12/05 07:22:15;;;;;;;1.67;1.40;;;3.00;98.20;;;;;;4983538;28;20575;-76
2022/12/05 07:24:42;;;;;;;1.70;1.53;;;2.90;98.20;;;;;;4982275;28;20526;-77
2022/12/05 07:27:09;;;;;;;1.70;1.50;;;2.90;98.20;;;;;;4982282;28;20532;-76
2022/12/05 07:29:36;;;;;;;1.60;1.40;;;2.90;98.20;;;;;;4983705;28;20468;-77
2022/12/05 07:32:04;;;;;;;1.70;1.50;;;2.90;98.20;;;;;;4985303;28;20526;-76
2022/12/05 07:34:31;;;;;;;1.67;1.40;;;2.80;98.20;;;;;;4984097;28;20489;-76
2022/12/05 07:37:00;;;;;;;1.70;1.50;;;2.80;98.20;;;;;;4982687;28;20489;-77
2022/12/05 07:39:28;;;;;;;1.80;1.70;;;2.80;98.20;;;;;;4984392;28;20553;-77
2022/12/05 07:41:55;;;;;;;1.60;1.40;;;2.80;98.20;;;;;;4983395;28;20969;-77
2022/12/05 07:44:22;;;;;;;1.60;1.40;;;2.80;98.20;;;;;;4983840;28;20461;-77
2022/12/05 07:46:49;;;;;;;1.63;1.50;;;2.80;98.20;;;;;;4983502;28;20971;-77
2022/12/05 07:49:16;;;;;;;1.67;1.43;;;2.80;98.20;;;;;;4982686;28;21170;-77
2022/12/05 07:51:43;;;;;;;1.70;1.50;;;2.80;98.20;;;;;;4982987;28;20588;-77
2022/12/05 07:54:11;;;;;;;1.63;1.40;;;2.80;98.20;;;;;;4983317;28;20981;-78
2022/12/05 07:56:38;;;;;;;1.60;1.40;;;2.80;98.20;;;;;;4983933;28;20583;-77
2022/12/05 07:59:05;;;;;;;1.60;1.40;;;2.80;98.20;;;;;;4982788;28;20465;-77
2022/12/05 08:01:33;;;;;;;1.63;1.40;;;2.70;98.20;;;;;;4983213;28;20461;-77
2022/12/05 08:04:00;;;;;;;1.63;1.40;;;2.70;98.20;;;;;;4984053;28;20472;-77
2022/12/05 08:06:29;;;;;;;1.70;1.50;;;2.70;98.20;;;;;;4983177;28;20543;-77
2022/12/05 08:08:57;;;;;;;1.70;1.50;;;2.70;98.20;;;;;;4983516;28;21601;-76
2022/12/05 08:11:28;;;;;;;1.70;1.60;;;2.70;98.20;;;;;;4982700;28;20489;-78
2022/12/05 08:13:56;;;;;;;1.60;1.43;;;2.70;98.20;;;;;;4983351;28;20475;-77
2022/12/05 08:16:26;;;;;;;1.70;1.50;;;2.70;98.20;;;;;;4981396;28;20575;-77
2022/12/05 08:18:54;;;;;;;1.70;1.50;;;2.70;98.20;;;;;;4981754;28;20541;-78
2022/12/05 08:21:22;;;;;;;1.70;1.50;;;2.70;98.20;;;;;;4981888;28;20970;-78
2022/12/05 08:23:49;;;;;;;1.70;1.60;;;2.70;98.20;;;;;;4982122;28;20607;-77
2022/12/05 08:26:19;;;;;;;1.60;1.40;;;2.70;98.20;;;;;;4983314;28;20495;-77
2022/12/05 08:28:51;;;;;;;1.70;1.40;;;2.70;98.20;;;;;;4984405;28;20465;-77
2022/12/05 08:31:22;;;;;;;1.70;1.60;;;2.70;98.20;;;;;;4983895;28;21079;-77
2022/12/05 08:33:50;;;;;;;3.60;3.27;;;2.70;98.20;;;;;;4983385;28;20464;-77
2022/12/05 08:36:18;;;;;;;1.63;1.40;;;2.70;98.20;;;;;;4981539;28;20492;-77
2022/12/05 08:38:46;;;;;;;1.70;1.60;;;2.70;98.20;;;;;;4983191;28;20663;-75
2022/12/05 08:41:15;;;;;;;1.67;1.40;;;2.70;98.20;;;;;;4981983;28;21025;-75
2022/12/05 08:43:43;;;;;;;1.63;1.40;;;2.70;98.20;;;;;;4983012;28;20473;-76
2022/12/05 08:46:12;;;;;;;1.70;1.40;;;2.70;98.20;;;;;;4982210;28;20591;-78
2022/12/05 08:48:39;;;;;;;1.70;1.40;;;2.70;98.20;;;;;;4984276;28;20469;-78
2022/12/05 08:51:08;;;;;;;1.63;1.33;;;2.70;98.20;;;;;;4982943;28;20813;-76
2022/12/05 08:53:36;;;;;;;1.70;1.43;;;2.80;98.20;;;;;;4982706;28;20976;-78
2022/12/05 08:56:04;;;;;;;1.70;1.60;;;2.70;98.20;;;;;;4982488;28;20491;-78
2022/12/05 08:58:32;;;;;;;1.63;1.50;;;2.80;98.20;;;;;;4983319;28;20464;-78
2022/12/05 09:01:05;;;;;;;1.70;1.40;;;2.80;98.20;;;;;;4982805;28;21003;-77
2022/12/05 09:03:34;;;;;;;1.70;1.60;;;2.80;98.20;;;;;;4983323;28;20485;-77
2022/12/05 09:06:07;;;;;;;1.67;1.40;;;2.80;98.20;;;;;;4983243;28;20572;-78
2022/12/05 09:08:34;;;;;;;1.63;1.47;;;2.80;98.20;;;;;;4986916;28;20480;-78
2022/12/05 09:11:06;;;;;;;1.67;1.43;;;2.80;98.20;;;;;;4985794;28;20923;-78
2022/12/05 09:13:33;;;;;;;1.70;1.50;;;2.80;98.20;;;;;;4985569;28;20617;-77
2022/12/05 09:16:05;;;;;;;2.33;2.13;;;2.80;98.20;;;;;;4984725;28;20514;-77
2022/12/05 09:18:34;;;;;;;1.67;1.40;;;2.80;98.20;;;;;;4985710;28;20547;-76
2022/12/05 09:21:06;;;;;;;1.67;1.40;;;2.80;98.20;;;;;;4986428;28;20584;-77
2022/12/05 09:23:33;;;;;;;1.67;1.40;;;2.80;98.20;;;;;;4986283;28;20465;-77
2022/12/05 09:26:01;;;;;;;1.70;1.50;;;2.90;98.20;;;;;;4984245;28;20489;-77
2022/12/05 09:28:28;;;;;;;1.67;1.47;;;2.90;98.20;;;;;;4987028;28;20473;-77
2022/12/05 09:30:57;;;;;;;1.73;1.63;;;2.90;98.20;;;;;;4985685;28;20469;-77
2022/12/05 09:33:24;;;;;;;1.70;1.50;;;2.90;98.20;;;;;;4984068;28;20564;-77
2022/12/05 09:35:53;;;;;;;1.67;1.40;;;2.90;98.20;;;;;;4984929;28;20565;-77
2022/12/05 09:38:20;;;;;;;1.63;1.40;;;3.00;98.20;;;;;;4986900;28;20475;-76
2022/12/05 09:41:07;;;;;;;1.70;1.40;;;3.00;98.20;;;;;;4986116;28;21116;-77
2022/12/05 09:43:41;;;;;;;1.67;1.40;;;3.00;98.20;;;;;;4983981;28;20479;-77
2022/12/05 09:46:17;;;;;;;1.60;1.40;;;3.00;98.20;;;;;;4984345;28;20497;-77
2022/12/05 09:48:45;;;;;;;1.70;1.50;;;3.10;98.20;;;;;;4985655;28;21156;-78
2022/12/05 09:51:13;;;;;;;1.67;1.43;;;3.10;98.20;;;;;;4983991;28;20575;-78
2022/12/05 09:53:42;;;;;;;1.60;1.40;;;3.10;98.20;;;;;;4985331;28;20555;-77
2022/12/05 09:56:21;;;;;;;1.70;1.40;;;3.10;98.20;;;;;;4984456;28;20487;-77
2022/12/05 09:58:49;;;;;;;1.60;1.40;;;3.10;98.20;;;;;;4987766;28;20463;-76
2022/12/05 10:01:41;;;;;;;1.70;1.50;;;3.20;98.20;;;;;;4985809;28;20457;-76
2022/12/05 10:04:22;;;;;;;1.70;1.60;;;3.20;98.20;;;;;;4982486;28;20480;-76
2022/12/05 10:07:02;;;;;;;1.70;1.40;;;3.20;98.20;;;;;;4984003;28;20489;-75
2022/12/05 10:09:47;;;;;;;1.67;1.40;;;3.20;98.20;;;;;;4986452;28;20465;-75
2022/12/05 10:12:24;;;;;;;1.60;1.40;;;3.30;98.20;;;;;;4985066;28;20491;-75
2022/12/05 10:15:01;;;;;;;1.67;1.40;;;3.30;98.20;;;;;;4985901;28;20464;-76
2022/12/05 10:17:33;;;;;;;1.70;1.53;;;3.30;98.20;;;;;;4985477;28;20488;-75
2022/12/05 10:20:09;;;;;;;1.70;1.53;;;3.30;98.20;;;;;;4984660;28;20883;-76
2022/12/05 10:22:46;;;;;;;1.70;1.53;;;3.20;98.20;;;;;;4984702;28;20905;-76
2022/12/05 10:25:18;;;;;;;2.63;2.43;;;3.20;98.20;;;;;;4980911;28;20468;-76
2022/12/05 10:27:49;;;;;;;1.70;1.50;;;3.30;98.20;;;;;;4982452;28;20989;-76
2022/12/05 10:30:19;;;;;;;1.63;1.40;;;3.30;98.20;;;;;;4981666;28;20466;-76
2022/12/05 10:32:52;;;;;;;1.63;1.30;;;3.30;98.20;;;;;;4984582;28;20484;-75
2022/12/05 10:35:22;;;;;;;1.70;1.43;;;3.30;98.20;;;;;;4983520;28;20916;-76
2022/12/05 10:37:53;;;;;;;1.70;1.40;;;3.30;98.20;;;;;;4983722;28;20475;-75
2022/12/05 10:40:21;;;;;;;1.67;1.40;;;3.30;98.20;;;;;;4985462;28;21054;-75
2022/12/05 10:42:50;;;;;;;1.70;1.40;;;3.30;98.20;;;;;;4983982;28;20572;-76
2022/12/05 10:45:21;;;;;;;1.67;1.47;;;3.40;98.20;;;;;;4985122;28;20468;-75
2022/12/05 10:47:49;;;;;;;1.70;1.50;;;3.40;98.20;;;;;;4983899;28;20648;-76
2022/12/05 10:50:24;;;;;;;1.70;1.50;;;3.50;98.20;;;;;;4984821;28;20803;-76
2022/12/05 10:52:55;;;;;;;1.67;1.47;;;3.50;98.20;;;;;;4982599;28;20515;-76
2022/12/05 10:55:32;;;;;;;1.70;1.40;;;3.50;98.20;;;;;;4983377;28;20460;-76
2022/12/05 10:58:11;;;;;;;1.60;1.30;;;3.60;98.20;;;;;;4982963;28;20465;-75
2022/12/05 11:00:43;;;;;;;1.67;1.40;;;3.50;98.20;;;;;;4981338;28;20502;-75
2022/12/05 11:03:24;;;;;;;1.70;1.50;;;3.50;98.20;;;;;;4982457;28;20464;-75
2022/12/05 11:05:53;;;;;;;1.60;1.30;;;3.50;98.20;;;;;;4982417;28;20567;-75
2022/12/05 11:08:26;;;;;;;1.60;1.33;;;3.60;98.20;;;;;;4983383;28;20854;-75
2022/12/05 11:11:02;;;;;;;3.40;3.20;;;3.50;98.20;;;;;;4981982;28;20470;-76
2022/12/05 11:13:30;;;;;;;1.70;1.57;;;3.50;98.20;;;;;;4983057;28;20584;-76
2022/12/05 11:15:57;;;;;;;1.60;1.30;;;3.60;98.20;;;;;;4980639;28;20495;-76
2022/12/05 11:18:31;;;;;;;1.60;1.33;;;3.60;98.20;;;;;;4980824;28;20492;-76
2022/12/05 11:21:10;;;;;;;1.60;1.30;;;3.60;98.20;;;;;;4982577;28;20519;-76
2022/12/05 11:23:39;;;;;;;1.60;1.40;;;3.70;98.20;;;;;;4982574;28;20981;-76
2022/12/05 11:26:17;;;;;;;1.63;1.40;;;3.70;98.20;;;;;;4980207;28;20810;-76
2022/12/05 11:28:44;;;;;;;1.60;1.30;;;3.70;98.20;;;;;;4983702;28;20499;-76
2022/12/05 11:31:25;;;;;;;1.67;1.37;;;3.70;98.20;;;;;;4982049;28;20465;-75
2022/12/05 11:34:02;;;;;;;1.67;1.40;;;3.70;98.20;;;;;;4982993;28;20464;-75
2022/12/05 11:36:37;;;;;;;2.27;2.07;;;3.70;98.20;;;;;;4983360;28;20484;-75
2022/12/05 11:39:05;;;;;;;1.60;1.30;;;3.70;98.20;;;;;;4983825;28;20464;-75
2022/12/05 11:41:49;;;;;;;1.60;1.30;;;3.70;98.20;;;;;;4984072;28;20464;-75
2022/12/05 11:44:52;;;;;;;1.60;1.40;;;3.70;98.20;;;;;;4983925;28;20559;-75
2022/12/05 11:47:28;;;;;;;1.60;1.40;;;3.70;98.20;;;;;;4982333;28;20886;-76
2022/12/05 11:50:28;;;;;;;1.70;1.40;;;3.70;98.20;;;;;;4983840;28;20464;-75
2022/12/05 11:53:10;;;;;;;1.70;1.40;;;3.70;98.20;;;;;;4986818;28;20548;-76
2022/12/05 11:55:43;;;;;;;1.70;1.40;;;3.80;98.20;;;;;;4982261;28;20548;-76
2022/12/05 11:58:41;;;;;;;1.63;1.40;;;3.80;98.20;;;;;;4982526;28;20469;-75
2022/12/05 12:01:20;;;;;;;1.67;1.37;;;3.80;98.20;;;;;;4983190;28;20465;-75
2022/12/05 12:04:17;;;;;;;1.67;1.40;;;3.70;98.20;;;;;;4982834;28;20575;-75
2022/12/05 12:06:54;;;;;;;1.70;1.50;;;3.70;98.20;;;;;;4979361;28;20516;-75
2022/12/05 12:09:34;;;;;;;1.70;1.40;;;3.70;98.20;;;;;;4980722;28;20547;-76
2022/12/05 12:12:12;;;;;;;1.63;1.30;;;3.70;98.20;;;;;;4981127;28;20488;-74
2022/12/05 12:14:46;;;;;;;1.60;1.30;;;3.70;98.20;;;;;;4981108;28;20595;-76
2022/12/05 12:17:20;;;;;;;1.60;1.30;;;3.70;98.20;;;;;;4980124;28;20624;-77
2022/12/05 12:20:10;;;;;;;1.60;1.30;;;3.80;98.20;;;;;;4982061;28;20898;-76
2022/12/05 12:22:50;;;;;;;1.70;1.40;;;3.80;98.20;;;;;;4980769;28;20465;-75
2022/12/05 12:25:41;;;;;;;1.63;1.40;;;3.80;98.20;;;;;;4978272;28;20827;-75
2022/12/05 12:28:25;;;;;;;1.60;1.30;;;3.80;98.20;;;;;;4980883;28;20886;-76
2022/12/05 12:31:05;;;;;;;1.70;1.50;;;3.80;98.20;;;;;;4982428;28;20559;-76
2022/12/05 12:33:36;;;;;;;2.33;2.13;;;3.80;98.20;;;;;;4980155;28;20534;-76
2022/12/05 12:36:12;;;;;;;1.63;1.40;;;3.80;98.20;;;;;;4980374;28;20485;-76
2022/12/05 12:38:51;;;;;;;1.60;1.30;;;3.80;98.20;;;;;;4982483;28;20464;-76
2022/12/05 12:41:49;;;;;;;1.70;1.40;;;3.80;98.20;;;;;;4984467;28;20891;-76
2022/12/05 12:44:41;;;;;;;1.60;1.30;;;3.70;98.20;;;;;;4985276;28;20966;-76
2022/12/05 12:47:17;;;;;;;1.60;1.30;;;3.70;98.20;;;;;;4984381;28;20492;-77
2022/12/05 12:49:57;;;;;;;1.60;1.30;;;3.70;98.20;;;;;;4986086;28;20506;-77
2022/12/05 12:52:27;;;;;;;1.60;1.30;;;3.70;98.20;;;;;;4986051;28;20485;-76
2022/12/05 12:55:18;;;;;;;1.67;1.40;;;3.70;98.20;;;;;;4984973;28;20524;-76
2022/12/05 12:57:58;;;;;;;1.60;1.40;;;3.70;98.20;;;;;;4981902;28;20512;-76
2022/12/05 13:00:38;;;;;;;1.60;1.30;;;3.70;98.20;;;;;;4983959;28;20548;-77
2022/12/05 13:03:11;;;;;;;1.67;1.40;;;3.70;98.20;;;;;;4985355;28;20469;-76
2022/12/05 13:05:42;;;;;;;1.70;1.40;;;3.70;98.20;;;;;;4982909;28;20461;-76
2022/12/05 13:08:14;;;;;;;1.67;1.40;;;3.70;98.20;;;;;;4975297;28;20487;-76
2022/12/05 13:10:43;;;;;;;1.60;1.40;;;3.70;98.20;;;;;;4977322;28;20574;-76
2022/12/05 13:13:16;;;;;;;1.70;1.40;;;3.70;98.20;;;;;;4980155;28;20941;-73
2022/12/05 13:15:46;;;;;;;2.67;2.47;;;3.70;98.20;;;;;;4980766;28;20607;-76
2022/12/05 13:18:17;;;;;;;1.67;1.40;;;3.70;98.20;;;;;;4981266;28;20563;-76
2022/12/05 13:20:46;;;;;;;1.60;1.30;;;3.70;98.20;;;;;;4981710;28;20484;-76
2022/12/05 13:23:17;;;;;;;1.70;1.47;;;3.70;98.20;;;;;;4981812;28;20473;-77